Time;durP1;ratioP1;P1;durP2;ratioP2;P2;SDS_P1;SDS_P2;PMS_P1;PMS_P2;Temp;Humidity;BMP_temperature;BMP_pressure;BME280_temperature;BME280_humidity;BME280_pressure;Samples;Min_cycle;Max_cycle;Signal;HPM_P1;HPM_P2
2021/11/25 00:01:18;;;;;;;3.40;3.30;;;;;;;;;;4956363;28;20134;-81
2021/11/25 00:03:43;;;;;;;3.25;3.05;;;;;;;;;;4955913;28;20056;-80
2021/11/25 00:06:09;;;;;;;2.88;2.78;;;;;;;;;;4954699;28;20518;-79
2021/11/25 00:08:34;;;;;;;3.50;3.28;;;;;;;;;;4939346;29;20457;-79
2021/11/25 00:11:00;;;;;;;3.00;2.90;;;;;;;;;;4955870;28;20562;-80
2021/11/25 00:13:26;;;;;;;3.47;3.38;;;;;;;;;;4955970;28;20132;-81
2021/11/25 00:15:51;;;;;;;3.65;3.50;;;;;;;;;;4956269;29;20546;-80
2021/11/25 00:18:18;;;;;;;3.55;3.38;;;;;;;;;;4936204;29;20086;-81
2021/11/25 00:20:45;;;;;;;3.83;3.63;;;;;;;;;;4938822;28;20044;-81
2021/11/25 00:23:11;;;;;;;3.15;3.05;;;;;;;;;;4956414;28;20047;-82
2021/11/25 00:25:36;;;;;;;3.40;3.28;;;;;;;;;;4956279;28;20515;-80
2021/11/25 00:28:02;;;;;;;3.42;3.25;;;;;;;;;;4953302;28;20050;-81
2021/11/25 00:30:28;;;;;;;3.42;3.22;;;;;;;;;;4938387;28;20050;-81
2021/11/25 00:32:54;;;;;;;3.42;3.25;;;;;;;;;;4952721;28;20082;-81
2021/11/25 00:35:19;;;;;;;3.78;3.58;;;;;;;;;;4955879;28;20078;-81
2021/11/25 00:37:45;;;;;;;3.08;2.97;;;;;;;;;;4953643;28;20042;-81
2021/11/25 00:40:14;;;;;;;3.42;3.22;;;;;;;;;;4955779;29;20050;-81
2021/11/25 00:42:40;;;;;;;3.28;3.13;;;;;;;;;;4937281;29;20043;-78
2021/11/25 00:45:07;;;;;;;4.18;3.97;;;;;;;;;;4955393;28;20047;-79
2021/11/25 00:47:32;;;;;;;2.83;2.72;;;;;;;;;;4955253;28;20047;-79
2021/11/25 00:49:58;;;;;;;2.85;2.75;;;;;;;;;;4963368;28;20042;-80
2021/11/25 00:52:25;;;;;;;4.05;3.75;;;;;;;;;;4974069;28;20047;-80
2021/11/25 00:54:51;;;;;;;3.53;3.30;;;;;;;;;;4974384;28;20055;-80
2021/11/25 00:57:16;;;;;;;4.15;3.80;;;;;;;;;;4974587;28;20038;-79
2021/11/25 00:59:42;;;;;;;4.50;4.20;;;;;;;;;;4974676;28;20178;-80
2021/11/25 01:02:07;;;;;;;3.65;3.45;;;;;;;;;;4974121;28;20038;-80
2021/11/25 01:04:32;;;;;;;4.30;4.00;;;;;;;;;;4974055;28;20038;-80
2021/11/25 01:06:58;;;;;;;3.72;3.42;;;;;;;;;;4974109;28;20054;-79
2021/11/25 01:09:24;;;;;;;4.40;4.00;;;;;;;;;;4974005;28;20039;-80
2021/11/25 01:11:50;;;;;;;4.03;3.83;;;;;;;;;;4971652;28;20051;-80
2021/11/25 01:14:18;;;;;;;3.83;3.53;;;;;;;;;;4956398;28;20046;-79
2021/11/25 01:16:43;;;;;;;3.85;3.55;;;;;;;;;;4974017;28;20505;-80
2021/11/25 01:19:09;;;;;;;3.63;3.42;;;;;;;;;;4974022;28;20098;-79
2021/11/25 01:21:34;;;;;;;4.28;3.97;;;;;;;;;;4973929;28;20070;-79
2021/11/25 01:24:00;;;;;;;4.47;4.18;;;;;;;;;;4973529;28;20094;-79
2021/11/25 01:26:26;;;;;;;5.07;4.65;;;;;;;;;;4972885;28;20043;-79
2021/11/25 01:28:51;;;;;;;5.75;4.53;;;;;;;;;;4973937;28;20043;-80
2021/11/25 01:31:17;;;;;;;7.30;6.68;;;;;;;;;;4973671;28;20456;-78
2021/11/25 01:33:42;;;;;;;4.53;4.20;;;;;;;;;;4971831;28;20039;-81
2021/11/25 01:36:08;;;;;;;4.93;4.53;;;;;;;;;;4972342;28;20045;-78
2021/11/25 01:38:33;;;;;;;4.72;4.18;;;;;;;;;;4973765;28;20121;-80
2021/11/25 01:40:59;;;;;;;4.60;4.20;;;;;;;;;;4973758;28;20047;-80
2021/11/25 01:43:26;;;;;;;4.82;4.43;;;;;;;;;;4973825;28;20461;-80
2021/11/25 01:45:53;;;;;;;6.35;5.75;;;;;;;;;;4972938;28;20073;-80
2021/11/25 01:48:20;;;;;;;5.50;4.97;;;;;;;;;;4972904;28;20082;-79
2021/11/25 01:50:46;;;;;;;5.97;5.15;;;;;;;;;;4956795;28;20043;-80
2021/11/25 01:53:13;;;;;;;6.60;4.50;;;;;;;;;;4948739;28;20082;-80
2021/11/25 01:55:39;;;;;;;5.57;5.10;;;;;;;;;;4950015;28;20047;-80
2021/11/25 01:58:05;;;;;;;5.45;4.95;;;;;;;;;;4953008;29;20141;-80
2021/11/25 02:00:39;;;;;;;6.68;4.75;;;;;;;;;;4953160;28;20126;-79
2021/11/25 02:03:06;;;;;;;5.20;4.32;;;;;;;;;;4952592;28;20035;-79
2021/11/25 02:05:33;;;;;;;5.18;4.60;;;;;;;;;;4954008;28;20074;-79
2021/11/25 02:07:59;;;;;;;5.60;5.10;;;;;;;;;;4953729;28;20058;-79
2021/11/25 02:10:26;;;;;;;5.22;4.03;;;;;;;;;;4954168;29;20047;-78
2021/11/25 02:12:52;;;;;;;4.45;3.92;;;;;;;;;;4953598;28;20043;-79
2021/11/25 02:15:19;;;;;;;5.05;4.53;;;;;;;;;;4954211;29;20105;-80
2021/11/25 02:17:45;;;;;;;5.28;4.38;;;;;;;;;;4951735;28;20445;-78
2021/11/25 02:20:13;;;;;;;7.05;5.78;;;;;;;;;;4953839;28;20126;-80
2021/11/25 02:22:40;;;;;;;5.43;4.78;;;;;;;;;;4953346;29;20050;-79
2021/11/25 02:25:08;;;;;;;5.20;4.70;;;;;;;;;;4954363;29;20101;-80
2021/11/25 02:27:34;;;;;;;8.32;6.40;;;;;;;;;;4954155;28;20043;-80
2021/11/25 02:29:59;;;;;;;6.13;5.60;;;;;;;;;;4954156;28;20386;-81
2021/11/25 02:32:33;;;;;;;5.55;5.03;;;;;;;;;;4953978;29;20070;-79
2021/11/25 02:35:00;;;;;;;4.40;4.00;;;;;;;;;;4952538;29;20725;-80
2021/11/25 02:37:26;;;;;;;5.60;5.10;;;;;;;;;;4952277;28;20466;-81
2021/11/25 02:39:53;;;;;;;6.15;5.55;;;;;;;;;;4952098;28;20133;-81
2021/11/25 02:42:18;;;;;;;5.65;5.15;;;;;;;;;;4934900;28;20516;-80
2021/11/25 02:44:44;;;;;;;7.30;6.55;;;;;;;;;;4952240;29;20043;-81
2021/11/25 02:47:09;;;;;;;5.47;4.97;;;;;;;;;;4952144;28;20039;-78
2021/11/25 02:49:37;;;;;;;6.30;5.70;;;;;;;;;;4951876;28;20039;-80
2021/11/25 02:52:03;;;;;;;7.15;5.07;;;;;;;;;;4952052;29;20126;-80
2021/11/25 02:54:30;;;;;;;7.05;5.20;;;;;;;;;;4950778;28;20552;-79
2021/11/25 02:56:55;;;;;;;9.68;5.88;;;;;;;;;;4934332;29;20048;-79
2021/11/25 02:59:21;;;;;;;7.65;5.80;;;;;;;;;;4951991;29;20126;-79
2021/11/25 03:01:46;;;;;;;6.18;5.57;;;;;;;;;;4952121;29;20131;-79
2021/11/25 03:04:12;;;;;;;6.20;5.60;;;;;;;;;;4952011;28;20050;-79
2021/11/25 03:06:37;;;;;;;11.18;6.63;;;;;;;;;;4951802;29;20057;-79
2021/11/25 03:09:06;;;;;;;7.40;6.18;;;;;;;;;;4952348;29;20130;-78
2021/11/25 03:11:33;;;;;;;9.80;6.50;;;;;;;;;;4951797;28;20106;-78
2021/11/25 03:14:09;;;;;;;7.07;5.78;;;;;;;;;;4951946;29;20040;-79
2021/11/25 03:16:35;;;;;;;6.05;5.45;;;;;;;;;;4952318;28;20050;-78
2021/11/25 03:19:01;;;;;;;8.50;5.78;;;;;;;;;;4952025;28;20043;-80
2021/11/25 03:21:27;;;;;;;9.43;6.82;;;;;;;;;;4952180;28;20066;-79
2021/11/25 03:23:54;;;;;;;14.48;10.48;;;;;;;;;;4952001;28;20130;-78
2021/11/25 03:26:22;;;;;;;9.05;6.95;;;;;;;;;;4950838;28;20043;-79
2021/11/25 03:28:48;;;;;;;7.75;6.97;;;;;;;;;;4952255;28;20042;-79
2021/11/25 03:31:17;;;;;;;9.00;7.55;;;;;;;;;;4952229;28;20077;-78
2021/11/25 03:33:43;;;;;;;8.60;7.57;;;;;;;;;;4952033;28;20502;-79
2021/11/25 03:36:10;;;;;;;9.80;8.18;;;;;;;;;;4952159;28;20054;-77
2021/11/25 03:38:36;;;;;;;13.77;10.43;;;;;;;;;;4953732;28;20051;-78
2021/11/25 03:41:04;;;;;;;13.93;8.82;;;;;;;;;;4955350;28;20053;-77
2021/11/25 03:43:29;;;;;;;8.25;7.45;;;;;;;;;;4955123;28;20066;-77
2021/11/25 03:45:56;;;;;;;9.77;8.32;;;;;;;;;;4955757;28;20051;-79
2021/11/25 03:48:28;;;;;;;8.70;7.82;;;;;;;;;;4955177;28;20043;-77
2021/11/25 03:50:53;;;;;;;8.55;6.93;;;;;;;;;;4955054;28;20043;-78
2021/11/25 03:53:19;;;;;;;6.95;6.25;;;;;;;;;;4954935;28;20055;-76
2021/11/25 03:55:44;;;;;;;9.68;6.57;;;;;;;;;;4955229;28;20061;-77
2021/11/25 03:58:10;;;;;;;7.63;5.68;;;;;;;;;;4955090;28;20102;-80
2021/11/25 04:00:35;;;;;;;8.38;6.32;;;;;;;;;;4954663;28;20492;-77
2021/11/25 04:03:02;;;;;;;8.02;6.68;;;;;;;;;;4955190;28;20051;-77
2021/11/25 04:05:27;;;;;;;6.30;5.70;;;;;;;;;;4954874;28;20039;-77
2021/11/25 04:07:53;;;;;;;8.00;6.07;;;;;;;;;;4954406;28;20032;-78
2021/11/25 04:10:18;;;;;;;7.15;5.30;;;;;;;;;;4954779;28;20074;-79
2021/11/25 04:12:44;;;;;;;7.35;6.43;;;;;;;;;;4954439;28;20058;-78
2021/11/25 04:15:12;;;;;;;9.13;8.30;;;;;;;;;;4954673;28;20465;-79
2021/11/25 04:17:38;;;;;;;6.60;5.60;;;;;;;;;;4954921;28;20043;-79
2021/11/25 04:20:05;;;;;;;8.00;5.95;;;;;;;;;;4955097;28;20046;-77
2021/11/25 04:22:31;;;;;;;7.22;5.60;;;;;;;;;;4954609;28;20048;-78
2021/11/25 04:24:57;;;;;;;5.20;4.78;;;;;;;;;;4955094;28;20066;-78
2021/11/25 04:27:23;;;;;;;6.05;5.57;;;;;;;;;;4953937;28;20043;-78
2021/11/25 04:30:01;;;;;;;6.00;5.25;;;;;;;;;;4954956;29;20054;-79
2021/11/25 04:37:57;;;;;;;7.63;5.80;;;;;;;;;;4954816;28;20094;-78
2021/11/25 04:40:22;;;;;;;7.03;5.50;;;;;;;;;;4953923;28;20098;-77
2021/11/25 04:42:48;;;;;;;7.45;6.70;;;;;;;;;;4955837;28;20035;-77
2021/11/25 04:45:14;;;;;;;7.55;4.85;;;;;;;;;;4953371;28;20150;-78
2021/11/25 04:47:39;;;;;;;8.00;5.88;;;;;;;;;;4954432;28;20039;-78
2021/11/25 04:50:06;;;;;;;5.78;5.28;;;;;;;;;;4952398;28;20098;-78
2021/11/25 04:52:32;;;;;;;6.00;5.35;;;;;;;;;;4936699;28;20043;-78
2021/11/25 04:54:57;;;;;;;7.15;5.82;;;;;;;;;;4952372;28;20546;-79
2021/11/25 04:57:23;;;;;;;7.05;6.35;;;;;;;;;;4953586;28;20051;-78
2021/11/25 04:59:48;;;;;;;9.73;5.60;;;;;;;;;;4953891;28;20105;-77
2021/11/25 05:02:14;;;;;;;6.97;6.22;;;;;;;;;;4954374;28;20057;-77
2021/11/25 05:04:39;;;;;;;6.07;5.43;;;;;;;;;;4954400;28;20449;-79
2021/11/25 05:07:05;;;;;;;6.32;5.72;;;;;;;;;;4954057;28;20078;-77
2021/11/25 05:09:31;;;;;;;5.55;5.05;;;;;;;;;;4954714;28;20063;-78
2021/11/25 05:11:56;;;;;;;5.28;4.78;;;;;;;;;;4953699;28;20523;-79
2021/11/25 05:14:22;;;;;;;6.55;5.45;;;;;;;;;;4953477;28;20039;-78
2021/11/25 05:16:47;;;;;;;8.45;6.45;;;;;;;;;;4953625;28;20084;-78
2021/11/25 05:19:17;;;;;;;10.18;6.65;;;;;;;;;;4953546;28;20073;-78
2021/11/25 05:21:43;;;;;;;18.70;10.45;;;;;;;;;;4953275;28;20047;-78
2021/11/25 05:24:09;;;;;;;14.85;10.15;;;;;;;;;;4953217;28;20039;-78
2021/11/25 05:26:35;;;;;;;11.65;8.77;;;;;;;;;;4953111;28;20058;-78
2021/11/25 05:29:00;;;;;;;10.55;8.35;;;;;;;;;;4952791;28;20412;-78
2021/11/25 05:31:26;;;;;;;10.25;7.70;;;;;;;;;;4952860;28;20047;-78
2021/11/25 05:33:52;;;;;;;12.65;8.95;;;;;;;;;;4953196;28;20117;-80
2021/11/25 05:36:17;;;;;;;23.38;12.30;;;;;;;;;;4951917;28;20050;-78
2021/11/25 05:38:43;;;;;;;18.05;11.23;;;;;;;;;;4952864;28;20522;-78
2021/11/25 05:41:09;;;;;;;18.55;12.00;;;;;;;;;;4952769;28;20051;-77
2021/11/25 05:43:34;;;;;;;13.48;8.95;;;;;;;;;;4935441;28;20041;-78
2021/11/25 05:46:00;;;;;;;10.25;7.03;;;;;;;;;;4952590;28;20042;-82
2021/11/25 05:48:27;;;;;;;5.50;4.90;;;;;;;;;;4953096;28;20047;-80
2021/11/25 05:50:52;;;;;;;9.02;7.30;;;;;;;;;;4935918;28;20050;-77
2021/11/25 05:53:20;;;;;;;7.25;6.28;;;;;;;;;;4953039;28;20464;-78
2021/11/25 05:55:47;;;;;;;7.95;6.57;;;;;;;;;;4951100;28;20039;-77
2021/11/25 05:58:12;;;;;;;8.07;6.22;;;;;;;;;;4935644;28;20050;-79
2021/11/25 06:00:38;;;;;;;6.97;6.10;;;;;;;;;;4953105;28;20047;-77
2021/11/25 06:03:03;;;;;;;6.53;5.95;;;;;;;;;;4952879;28;20051;-77
2021/11/25 06:05:29;;;;;;;6.45;5.53;;;;;;;;;;4953076;28;20043;-79
2021/11/25 06:07:54;;;;;;;6.22;4.60;;;;;;;;;;4952455;28;20515;-78
2021/11/25 06:10:21;;;;;;;8.40;4.95;;;;;;;;;;4952721;28;20086;-78
2021/11/25 06:12:48;;;;;;;6.45;4.65;;;;;;;;;;4952265;28;20054;-78
2021/11/25 06:15:14;;;;;;;7.75;7.05;;;;;;;;;;4952886;28;20505;-77
2021/11/25 06:17:40;;;;;;;6.43;5.25;;;;;;;;;;4952996;28;20051;-79
2021/11/25 06:20:11;;;;;;;5.30;4.80;;;;;;;;;;4952909;28;20050;-78
2021/11/25 06:22:38;;;;;;;7.82;5.47;;;;;;;;;;4934936;28;20051;-78
2021/11/25 06:25:05;;;;;;;5.72;5.15;;;;;;;;;;4951215;28;20050;-78
2021/11/25 06:27:30;;;;;;;6.85;5.93;;;;;;;;;;4952369;28;20472;-76
2021/11/25 06:29:55;;;;;;;6.57;5.60;;;;;;;;;;4952584;28;20122;-78
2021/11/25 06:32:21;;;;;;;5.30;4.78;;;;;;;;;;4952345;28;20043;-78
2021/11/25 06:34:46;;;;;;;6.18;5.57;;;;;;;;;;4952349;28;20054;-78
2021/11/25 06:37:12;;;;;;;7.93;5.60;;;;;;;;;;4952253;28;20390;-78
2021/11/25 06:39:37;;;;;;;6.63;5.93;;;;;;;;;;4952491;28;20070;-79
2021/11/25 06:42:03;;;;;;;6.95;5.25;;;;;;;;;;4951896;28;20515;-77
2021/11/25 06:44:28;;;;;;;5.78;4.70;;;;;;;;;;4952143;28;20642;-78
2021/11/25 06:46:54;;;;;;;7.28;6.53;;;;;;;;;;4952160;28;20105;-76
2021/11/25 06:49:20;;;;;;;6.35;5.65;;;;;;;;;;4952288;28;20122;-77
2021/11/25 06:51:45;;;;;;;5.00;4.60;;;;;;;;;;4952208;28;20138;-79
2021/11/25 06:54:11;;;;;;;6.43;5.72;;;;;;;;;;4952330;28;20568;-78
2021/11/25 06:56:36;;;;;;;7.43;6.07;;;;;;;;;;4951996;28;20047;-77
2021/11/25 06:59:04;;;;;;;6.25;4.45;;;;;;;;;;4952343;28;20050;-79
2021/11/25 07:01:30;;;;;;;7.57;5.78;;;;;;;;;;4951688;28;20043;-79
2021/11/25 07:03:55;;;;;;;6.80;5.25;;;;;;;;;;4952652;28;20130;-78
2021/11/25 07:06:21;;;;;;;7.07;5.28;;;;;;;;;;4953237;28;20039;-79
2021/11/25 07:08:46;;;;;;;10.90;5.32;;;;;;;;;;4953531;28;20560;-78
2021/11/25 07:11:12;;;;;;;6.05;5.22;;;;;;;;;;4952895;28;20039;-79
2021/11/25 07:13:37;;;;;;;7.38;5.95;;;;;;;;;;4953507;28;20095;-79
2021/11/25 07:16:03;;;;;;;5.90;5.13;;;;;;;;;;4956620;28;20044;-80
2021/11/25 07:18:29;;;;;;;7.07;5.97;;;;;;;;;;4956307;28;20511;-78
2021/11/25 07:20:55;;;;;;;5.72;5.22;;;;;;;;;;4955870;28;20043;-78
2021/11/25 07:23:21;;;;;;;7.40;5.20;;;;;;;;;;4956039;28;20493;-79
2021/11/25 07:25:46;;;;;;;5.72;4.97;;;;;;;;;;4938783;28;20043;-78
2021/11/25 07:28:12;;;;;;;5.95;4.85;;;;;;;;;;4955703;28;20489;-79
2021/11/25 07:30:37;;;;;;;6.00;4.90;;;;;;;;;;4955448;28;20345;-77
2021/11/25 07:33:03;;;;;;;6.38;4.63;;;;;;;;;;4955207;28;20066;-78
2021/11/25 07:35:29;;;;;;;4.60;4.20;;;;;;;;;;4955302;28;20137;-79
2021/11/25 07:37:56;;;;;;;5.32;4.82;;;;;;;;;;4955206;28;20130;-79
2021/11/25 07:40:23;;;;;;;5.35;4.85;;;;;;;;;;4955232;28;20153;-77
2021/11/25 07:42:51;;;;;;;6.82;6.28;;;;;;;;;;4953909;28;20302;-78
2021/11/25 07:45:17;;;;;;;6.13;5.63;;;;;;;;;;4954819;28;20098;-77
2021/11/25 07:47:43;;;;;;;5.22;4.47;;;;;;;;;;4937668;29;20057;-78
2021/11/25 07:50:15;;;;;;;5.60;4.65;;;;;;;;;;4955215;28;20562;-78
2021/11/25 07:52:42;;;;;;;4.82;4.43;;;;;;;;;;4954806;28;20150;-78
2021/11/25 07:55:10;;;;;;;4.05;3.03;;;;;;;;;;4954885;28;20408;-79
2021/11/25 07:57:38;;;;;;;5.85;4.72;;;;;;;;;;4954987;28;20555;-77
2021/11/25 08:00:05;;;;;;;4.30;3.95;;;;;;;;;;4953728;28;20503;-78
2021/11/25 08:02:32;;;;;;;5.95;5.13;;;;;;;;;;4954464;28;20079;-78
2021/11/25 08:04:58;;;;;;;5.05;4.65;;;;;;;;;;4954676;28;20035;-78
2021/11/25 08:07:23;;;;;;;5.47;3.97;;;;;;;;;;4954341;28;20046;-78
2021/11/25 08:09:49;;;;;;;5.75;5.25;;;;;;;;;;4952331;28;20059;-78
2021/11/25 08:12:14;;;;;;;5.65;5.00;;;;;;;;;;4939070;28;20039;-76
2021/11/25 08:14:40;;;;;;;3.05;2.72;;;;;;;;;;4957787;28;20432;-78
2021/11/25 08:17:08;;;;;;;5.35;4.57;;;;;;;;;;4974243;28;20102;-78
2021/11/25 08:19:34;;;;;;;4.60;4.03;;;;;;;;;;4973643;28;20046;-79
2021/11/25 08:21:59;;;;;;;5.53;5.03;;;;;;;;;;4974121;28;20411;-78
2021/11/25 08:24:25;;;;;;;5.47;4.55;;;;;;;;;;4972633;28;20047;-79
2021/11/25 08:26:52;;;;;;;4.70;4.40;;;;;;;;;;4967951;28;20042;-79
2021/11/25 08:29:17;;;;;;;7.20;5.75;;;;;;;;;;4955496;28;20110;-78
2021/11/25 08:31:43;;;;;;;5.90;4.38;;;;;;;;;;4954579;28;20051;-78
2021/11/25 08:34:08;;;;;;;7.13;5.95;;;;;;;;;;4955505;28;20047;-78
2021/11/25 08:36:34;;;;;;;5.53;4.85;;;;;;;;;;4955305;28;20043;-78
2021/11/25 08:38:59;;;;;;;5.05;4.55;;;;;;;;;;4954805;28;20051;-79
2021/11/25 08:41:28;;;;;;;5.47;4.97;;;;;;;;;;4955435;28;20130;-78
2021/11/25 08:43:53;;;;;;;5.40;4.90;;;;;;;;;;4955289;28;20054;-79
2021/11/25 08:46:19;;;;;;;4.60;4.10;;;;;;;;;;4953509;28;20043;-78
2021/11/25 08:48:45;;;;;;;4.38;3.97;;;;;;;;;;4950442;28;20111;-79
2021/11/25 08:51:11;;;;;;;5.55;4.70;;;;;;;;;;4955097;28;20531;-79
2021/11/25 08:53:37;;;;;;;4.70;3.83;;;;;;;;;;4954898;28;20485;-78
2021/11/25 08:56:05;;;;;;;4.80;4.50;;;;;;;;;;4954672;28;20057;-77
2021/11/25 08:58:32;;;;;;;4.18;3.80;;;;;;;;;;4954731;28;20202;-78
2021/11/25 09:00:57;;;;;;;5.78;4.25;;;;;;;;;;4954317;28;20039;-78
2021/11/25 09:03:23;;;;;;;3.15;2.95;;;;;;;;;;4955328;28;20058;-78
2021/11/25 09:05:48;;;;;;;4.05;3.75;;;;;;;;;;4972579;28;20046;-78
2021/11/25 09:08:14;;;;;;;3.85;3.55;;;;;;;;;;4973780;28;20192;-79
2021/11/25 09:10:40;;;;;;;3.67;3.47;;;;;;;;;;4969587;28;20050;-79
2021/11/25 09:13:06;;;;;;;5.15;4.53;;;;;;;;;;4954821;28;20074;-79
2021/11/25 09:15:38;;;;;;;5.28;3.70;;;;;;;;;;4972148;28;20039;-78
2021/11/25 09:18:05;;;;;;;4.10;3.80;;;;;;;;;;4973385;28;20081;-78
2021/11/25 09:20:33;;;;;;;4.10;3.80;;;;;;;;;;4973519;28;20066;-79
2021/11/25 09:23:08;;;;;;;3.58;3.38;;;;;;;;;;4972488;28;20051;-78
2021/11/25 09:25:33;;;;;;;3.85;3.35;;;;;;;;;;4971133;28;20493;-79
2021/11/25 09:28:01;;;;;;;3.45;3.25;;;;;;;;;;4970925;28;20053;-78
2021/11/25 09:30:27;;;;;;;5.40;5.03;;;;;;;;;;4970155;28;20437;-78
2021/11/25 09:32:53;;;;;;;4.10;3.75;;;;;;;;;;4969652;28;20046;-78
2021/11/25 09:35:19;;;;;;;4.72;4.28;;;;;;;;;;4954915;28;20038;-78
2021/11/25 09:37:46;;;;;;;3.50;3.22;;;;;;;;;;4972753;28;20073;-77
2021/11/25 09:40:22;;;;;;;5.97;5.10;;;;;;;;;;4972934;28;20125;-78
2021/11/25 09:42:50;;;;;;;4.40;4.07;;;;;;;;;;4954558;28;20078;-79
2021/11/25 09:45:17;;;;;;;4.85;4.05;;;;;;;;;;4972505;28;20046;-81
2021/11/25 09:47:43;;;;;;;5.50;5.03;;;;;;;;;;4971001;28;20381;-79
2021/11/25 09:50:09;;;;;;;4.38;4.03;;;;;;;;;;4971803;28;20047;-81
2021/11/25 09:52:34;;;;;;;5.10;4.43;;;;;;;;;;4968129;28;20059;-80
2021/11/25 09:55:02;;;;;;;6.45;4.05;;;;;;;;;;4971342;28;20047;-77
2021/11/25 09:57:27;;;;;;;4.82;4.43;;;;;;;;;;4971551;28;20500;-77
2021/11/25 09:59:53;;;;;;;5.00;4.60;;;;;;;;;;4972384;28;20046;-79
2021/11/25 10:02:18;;;;;;;5.85;3.97;;;;;;;;;;4971868;28;20078;-78
2021/11/25 10:04:44;;;;;;;4.43;4.00;;;;;;;;;;4958610;28;20047;-78
2021/11/25 10:07:09;;;;;;;5.28;4.78;;;;;;;;;;4950234;28;20051;-78
2021/11/25 10:09:37;;;;;;;4.65;4.35;;;;;;;;;;4950670;28;20094;-78
2021/11/25 10:12:36;;;;;;;3.95;3.65;;;;;;;;;;4948385;28;20044;-76
2021/11/25 10:15:23;;;;;;;3.22;3.00;;;;;;;;;;4949890;28;20194;-79
2021/11/25 10:17:51;;;;;;;3.97;3.67;;;;;;;;;;4951060;28;20039;-77
2021/11/25 10:20:19;;;;;;;3.72;3.42;;;;;;;;;;4947444;28;20046;-78
2021/11/25 10:23:03;;;;;;;2.30;2.10;;;;;;;;;;4945143;28;20413;-76
2021/11/25 10:26:11;;;;;;;2.67;2.55;;;;;;;;;;4946574;28;20073;-79
2021/11/25 10:28:36;;;;;;;;;;;;;;;;;;4943811;28;20535;-80
2021/11/25 10:31:18;;;;;;;3.17;2.97;;;;;;;;;;4931892;28;19954;-80
2021/11/25 10:34:15;;;;;;;3.42;3.00;;;;;;;;;;4949386;28;20039;-79
2021/11/25 10:42:28;;;;;;;3.17;2.97;;;;;;;;;;4951861;28;20066;-78
2021/11/25 10:44:55;;;;;;;3.08;2.85;;;;;;;;;;4949427;28;20129;-80
2021/11/25 10:47:25;;;;;;;3.75;3.55;;;;;;;;;;4949727;28;20497;-80
2021/11/25 10:50:00;;;;;;;4.15;3.92;;;;;;;;;;4953447;28;20469;-79
2021/11/25 10:52:37;;;;;;;3.67;3.42;;;;;;;;;;4948572;28;20046;-79
2021/11/25 10:55:04;;;;;;;3.17;2.88;;;;;;;;;;4952748;28;20560;-78
2021/11/25 10:57:57;;;;;;;3.22;3.03;;;;;;;;;;4937168;28;20078;-80
2021/11/25 11:00:36;;;;;;;5.45;3.03;;;;;;;;;;4946435;28;20043;-80
2021/11/25 11:03:05;;;;;;;3.28;3.00;;;;;;;;;;4936125;28;20051;-79
2021/11/25 11:05:43;;;;;;;3.67;3.45;;;;;;;;;;4933638;29;20066;-77
2021/11/25 11:08:09;;;;;;;4.22;3.00;;;;;;;;;;4932153;29;20131;-79
2021/11/25 11:10:34;;;;;;;4.30;2.97;;;;;;;;;;4953946;28;20131;-80
2021/11/25 11:13:22;;;;;;;3.28;3.05;;;;;;;;;;4955513;28;20053;-79
2021/11/25 11:18:43;;;;;;;3.50;2.83;;;;;;;;;;4956463;28;20039;-79
2021/11/25 11:21:08;;;;;;;;;;;;;;;;;;4952078;28;20074;-78
2021/11/25 11:23:34;;;;;;;3.58;3.35;;;;;;;;;;4954276;28;20016;-79
2021/11/25 11:25:59;;;;;;;3.05;2.85;;;;;;;;;;4953831;28;20047;-79
2021/11/25 11:28:27;;;;;;;3.17;2.78;;;;;;;;;;4952097;28;20039;-79
2021/11/25 11:30:53;;;;;;;3.05;2.85;;;;;;;;;;4954119;28;20043;-79
2021/11/25 11:33:18;;;;;;;3.95;2.70;;;;;;;;;;4953954;28;20420;-80
2021/11/25 11:35:45;;;;;;;4.07;3.40;;;;;;;;;;4953836;28;20385;-78
2021/11/25 11:38:14;;;;;;;3.22;2.88;;;;;;;;;;4953719;28;20039;-80
2021/11/25 11:40:42;;;;;;;3.75;3.38;;;;;;;;;;4953867;28;20051;-78
2021/11/25 11:43:08;;;;;;;3.95;3.47;;;;;;;;;;4949251;28;20050;-78
2021/11/25 11:45:38;;;;;;;3.42;3.13;;;;;;;;;;4953402;28;20074;-80
2021/11/25 11:48:06;;;;;;;2.75;2.55;;;;;;;;;;4952611;28;20568;-78
2021/11/25 11:50:38;;;;;;;2.92;2.72;;;;;;;;;;4952817;28;20039;-80
2021/11/25 11:53:10;;;;;;;3.60;3.40;;;;;;;;;;4954388;28;20035;-79
2021/11/25 11:55:47;;;;;;;4.35;3.17;;;;;;;;;;4954965;28;20055;-79
2021/11/25 11:58:54;;;;;;;3.10;2.88;;;;;;;;;;4952934;28;20051;-78
2021/11/25 12:01:25;;;;;;;3.60;2.42;;;;;;;;;;4942475;28;20096;-77
2021/11/25 12:04:05;;;;;;;3.38;3.08;;;;;;;;;;4954243;28;20062;-77
2021/11/25 12:06:40;;;;;;;2.72;2.53;;;;;;;;;;4950848;28;20051;-77
2021/11/25 12:09:14;;;;;;;3.53;3.17;;;;;;;;;;4918039;29;20051;-78
2021/11/25 12:11:46;;;;;;;3.20;2.90;;;;;;;;;;4933633;29;20067;-78
2021/11/25 12:14:20;;;;;;;3.97;2.03;;;;;;;;;;4935320;29;20458;-78
2021/11/25 12:16:52;;;;;;;3.08;2.88;;;;;;;;;;4935569;29;20116;-79
2021/11/25 12:19:25;;;;;;;2.63;2.42;;;;;;;;;;4936152;29;20035;-78
2021/11/25 12:21:54;;;;;;;2.65;2.45;;;;;;;;;;4935760;29;20046;-80
2021/11/25 12:24:32;;;;;;;2.05;1.95;;;;;;;;;;4934077;29;20495;-79
2021/11/25 12:27:20;;;;;;;2.78;2.40;;;;;;;;;;4930332;29;20051;-79
2021/11/25 12:29:51;;;;;;;4.88;2.75;;;;;;;;;;4933642;29;20043;-77
2021/11/25 12:32:50;;;;;;;2.10;1.67;;;;;;;;;;4934176;29;20405;-81
2021/11/25 12:35:24;;;;;;;2.63;2.53;;;;;;;;;;4933054;29;20071;-80
2021/11/25 12:38:15;;;;;;;4.45;2.85;;;;;;;;;;4934149;29;20076;-81
2021/11/25 12:40:43;;;;;;;3.05;2.50;;;;;;;;;;4935506;29;20544;-81
2021/11/25 12:43:17;;;;;;;2.72;2.53;;;;;;;;;;4935781;29;20078;-81
2021/11/25 12:45:46;;;;;;;3.05;2.85;;;;;;;;;;4935542;29;20043;-81
2021/11/25 12:48:15;;;;;;;3.70;3.38;;;;;;;;;;4935347;29;20063;-82
2021/11/25 12:50:51;;;;;;;2.45;2.35;;;;;;;;;;4933001;29;20048;-81
2021/11/25 12:53:35;;;;;;;2.75;2.58;;;;;;;;;;4934815;29;20050;-82
2021/11/25 12:56:03;;;;;;;2.65;2.55;;;;;;;;;;4931543;29;20054;-82
2021/11/25 12:58:40;;;;;;;2.42;2.30;;;;;;;;;;4934210;29;20498;-81
2021/11/25 13:01:11;;;;;;;3.30;2.20;;;;;;;;;;4935022;29;20051;-81
2021/11/25 13:03:37;;;;;;;2.83;2.72;;;;;;;;;;4943346;28;20046;-80
2021/11/25 13:06:03;;;;;;;2.45;2.35;;;;;;;;;;4972728;28;20504;-82
2021/11/25 13:08:35;;;;;;;2.85;2.65;;;;;;;;;;4973285;28;20050;-80
2021/11/25 13:11:02;;;;;;;2.15;2.05;;;;;;;;;;4970647;28;20043;-80
2021/11/25 13:13:31;;;;;;;32.45;3.35;;;;;;;;;;4971951;28;20398;-79
2021/11/25 13:16:04;;;;;;;3.95;2.67;;;;;;;;;;4972765;28;20047;-80
2021/11/25 13:19:05;;;;;;;2.28;2.17;;;;;;;;;;4968578;28;20512;-80
2021/11/25 13:21:32;;;;;;;2.47;2.38;;;;;;;;;;4973469;28;20042;-81
2021/11/25 13:24:18;;;;;;;2.53;2.33;;;;;;;;;;4970823;28;20697;-83
2021/11/25 13:26:48;;;;;;;2.17;2.05;;;;;;;;;;4970935;28;20130;-81
2021/11/25 13:29:16;;;;;;;2.47;2.28;;;;;;;;;;4968865;28;20042;-81
2021/11/25 13:31:43;;;;;;;2.65;2.47;;;;;;;;;;4971186;28;20049;-80
2021/11/25 13:34:14;;;;;;;3.25;3.08;;;;;;;;;;4970645;28;20043;-81
2021/11/25 13:36:42;;;;;;;2.53;2.35;;;;;;;;;;4973005;28;20121;-81
2021/11/25 13:39:17;;;;;;;2.78;2.58;;;;;;;;;;4975232;28;20034;-81
2021/11/25 13:41:47;;;;;;;2.78;2.58;;;;;;;;;;4972524;28;20065;-82
2021/11/25 13:44:13;;;;;;;3.38;2.53;;;;;;;;;;4954980;28;20062;-81
2021/11/25 13:46:42;;;;;;;2.22;2.13;;;;;;;;;;4971380;28;20038;-82
2021/11/25 13:49:10;;;;;;;2.47;2.38;;;;;;;;;;4972435;28;20050;-82
2021/11/25 13:51:41;;;;;;;2.03;1.92;;;;;;;;;;4959495;28;20401;-81
2021/11/25 13:54:14;;;;;;;2.35;2.25;;;;;;;;;;4950594;28;20780;-83
2021/11/25 13:56:41;;;;;;;3.15;2.95;;;;;;;;;;4953422;28;20063;-81
2021/11/25 13:59:08;;;;;;;1.85;1.75;;;;;;;;;;4950852;28;20456;-80
2021/11/25 14:01:35;;;;;;;2.35;2.25;;;;;;;;;;4952965;28;20047;-82
2021/11/25 14:04:01;;;;;;;2.55;2.38;;;;;;;;;;4960767;28;20066;-81
2021/11/25 14:06:30;;;;;;;2.35;2.25;;;;;;;;;;4972403;28;20194;-83
2021/11/25 14:09:17;;;;;;;2.60;2.40;;;;;;;;;;4972371;28;20039;-82
2021/11/25 14:11:59;;;;;;;2.53;2.28;;;;;;;;;;4972230;28;20058;-83
2021/11/25 14:14:35;;;;;;;2.40;2.20;;;;;;;;;;4973332;28;20058;-83
2021/11/25 14:17:07;;;;;;;3.05;2.85;;;;;;;;;;4971538;28;20069;-84
2021/11/25 14:19:33;;;;;;;2.53;2.33;;;;;;;;;;4972620;28;20070;-83
2021/11/25 14:21:58;;;;;;;1.60;1.50;;;;;;;;;;4971869;28;20486;-82
2021/11/25 14:24:30;;;;;;;2.58;2.47;;;;;;;;;;4973082;28;20088;-84
2021/11/25 14:32:44;;;;;;;2.58;2.42;;;;;;;;;;4973537;28;20065;-82
2021/11/25 14:35:28;;;;;;;2.80;2.65;;;;;;;;;;4955498;28;20097;-82
2021/11/25 14:38:16;;;;;;;4.45;3.20;;;;;;;;;;4970467;28;20653;-82
2021/11/25 14:40:41;;;;;;;2.42;2.20;;;;;;;;;;4972380;28;20050;-81
2021/11/25 14:43:10;;;;;;;2.17;2.08;;;;;;;;;;4972272;28;20047;-83
2021/11/25 14:45:38;;;;;;;2.85;2.65;;;;;;;;;;4972233;28;20134;-83
2021/11/25 14:48:18;;;;;;;2.40;2.30;;;;;;;;;;4972829;28;20118;-82
2021/11/25 14:50:49;;;;;;;4.07;3.88;;;;;;;;;;4971402;28;20415;-84
2021/11/25 14:53:18;;;;;;;4.80;3.00;;;;;;;;;;4971750;28;20051;-81
2021/11/25 14:55:56;;;;;;;2.42;2.33;;;;;;;;;;4971131;28;20047;-80
2021/11/25 14:58:24;;;;;;;3.00;2.80;;;;;;;;;;4971303;28;20069;-82
2021/11/25 15:00:50;;;;;;;2.50;2.40;;;;;;;;;;4969835;28;20054;-82
2021/11/25 15:03:15;;;;;;;2.72;2.53;;;;;;;;;;4969523;28;20524;-81
2021/11/25 15:05:48;;;;;;;3.40;2.50;;;;;;;;;;4952482;28;20069;-81
2021/11/25 15:08:16;;;;;;;2.20;2.13;;;;;;;;;;4952170;28;20093;-80
2021/11/25 15:10:44;;;;;;;2.33;2.22;;;;;;;;;;4952329;28;20082;-85